Time;durP1;ratioP1;P1;durP2;ratioP2;P2;SDS_P1;SDS_P2;PMS_P1;PMS_P2;Temp;Humidity;BMP_temperature;BMP_pressure;BME280_temperature;BME280_humidity;BME280_pressure;Samples;Min_cycle;Max_cycle;Signal;HPM_P1;HPM_P2
2021/03/13 00:00:16;;;;;;;3.30;1.75;;;5.60;40.50;;;;;;5098463;27;20214;-77
2021/03/13 00:02:44;;;;;;;3.53;1.27;;;5.70;39.70;;;;;;5107984;27;20664;-76
2021/03/13 00:05:14;;;;;;;3.15;1.30;;;5.80;38.80;;;;;;5099876;27;20191;-76
2021/03/13 00:07:41;;;;;;;3.20;0.93;;;5.90;38.20;;;;;;5105515;27;20195;-76
2021/03/13 00:10:09;;;;;;;2.58;0.95;;;5.90;38.30;;;;;;5098624;27;20203;-76
2021/03/13 00:12:36;;;;;;;3.47;1.52;;;6.00;38.20;;;;;;5100823;27;20651;-76
2021/03/13 00:15:05;;;;;;;2.97;1.30;;;6.10;37.50;;;;;;5106259;27;20646;-76
2021/03/13 00:17:32;;;;;;;3.28;0.80;;;6.20;37.30;;;;;;5094917;27;20199;-76
2021/03/13 00:20:05;;;;;;;4.35;1.40;;;6.30;37.10;;;;;;5105474;27;20204;-76
2021/03/13 00:22:37;;;;;;;1.65;0.70;;;6.50;36.70;;;;;;5097489;27;20192;-76
2021/03/13 00:25:08;;;;;;;1.65;0.90;;;6.60;36.50;;;;;;5104402;27;20207;-76
2021/03/13 00:27:45;;;;;;;1.55;0.60;;;6.70;36.10;;;;;;5101784;27;21077;-76
2021/03/13 00:30:17;;;;;;;2.15;0.73;;;6.80;36.00;;;;;;5087496;27;20216;-76
2021/03/13 00:32:52;;;;;;;2.60;0.98;;;7.00;35.60;;;;;;5105697;27;20228;-76
2021/03/13 00:35:19;;;;;;;3.58;1.08;;;7.10;35.40;;;;;;5095271;27;20199;-76
2021/03/13 00:37:52;;;;;;;2.58;0.95;;;7.20;34.80;;;;;;5106228;27;20340;-76
2021/03/13 00:40:21;;;;;;;1.92;0.85;;;7.30;34.80;;;;;;5102622;27;20210;-76
2021/03/13 00:42:48;;;;;;;1.70;0.70;;;7.30;34.40;;;;;;5112460;28;20204;-76
2021/03/13 00:45:17;;;;;;;1.70;0.70;;;7.40;34.30;;;;;;5124486;28;20188;-76
2021/03/13 00:47:44;;;;;;;2.13;0.60;;;7.50;34.20;;;;;;5132819;28;20188;-75
2021/03/13 00:50:15;;;;;;;1.77;0.60;;;7.50;33.80;;;;;;5132346;28;20191;-76
2021/03/13 00:52:44;;;;;;;1.90;0.60;;;7.60;33.80;;;;;;5132912;27;20276;-76
2021/03/13 00:55:15;;;;;;;2.03;0.55;;;7.60;33.60;;;;;;5132304;28;20191;-75
2021/03/13 00:57:43;;;;;;;1.60;0.70;;;7.70;33.30;;;;;;5132190;28;20638;-75
2021/03/13 01:00:14;;;;;;;1.77;0.85;;;7.70;33.30;;;;;;5132256;28;20543;-76
2021/03/13 01:02:41;;;;;;;2.50;1.10;;;7.80;33.20;;;;;;5132569;27;20213;-77
2021/03/13 01:05:11;;;;;;;2.67;1.02;;;7.80;32.90;;;;;;5132762;27;20187;-75
2021/03/13 01:07:44;;;;;;;3.05;0.73;;;7.80;32.70;;;;;;5133577;27;20204;-76
2021/03/13 01:10:15;;;;;;;2.40;1.23;;;7.80;32.50;;;;;;5136793;27;20271;-76
2021/03/13 01:12:43;;;;;;;3.90;0.85;;;7.90;32.80;;;;;;5136148;27;20203;-75
2021/03/13 01:15:13;;;;;;;2.47;0.68;;;8.00;32.60;;;;;;5136727;27;20192;-75
2021/03/13 01:17:40;;;;;;;1.65;0.63;;;8.00;32.50;;;;;;5136423;27;20179;-76
2021/03/13 01:20:28;;;;;;;3.55;0.60;;;8.00;32.40;;;;;;5136812;27;20275;-75
2021/03/13 01:23:06;;;;;;;1.95;0.60;;;8.00;32.40;;;;;;5136439;27;20188;-75
2021/03/13 01:25:46;;;;;;;2.05;0.80;;;8.10;32.90;;;;;;5136518;27;20196;-75
2021/03/13 01:28:16;;;;;;;1.50;0.70;;;8.10;32.20;;;;;;5136292;27;20194;-76
2021/03/13 01:30:43;;;;;;;1.70;0.77;;;8.20;32.20;;;;;;5135860;27;20219;-76
2021/03/13 01:33:12;;;;;;;1.67;0.68;;;8.30;32.40;;;;;;5136378;27;20250;-76
2021/03/13 01:35:39;;;;;;;1.58;0.60;;;8.30;32.40;;;;;;5136073;27;20179;-76
2021/03/13 01:38:06;;;;;;;1.70;0.70;;;8.40;32.40;;;;;;5136194;27;20649;-76
2021/03/13 01:40:32;;;;;;;2.65;0.68;;;8.40;32.10;;;;;;5135537;27;20195;-76
2021/03/13 01:42:59;;;;;;;3.85;0.70;;;8.40;32.10;;;;;;5135922;27;20269;-77
2021/03/13 01:45:33;;;;;;;1.80;0.60;;;8.40;32.40;;;;;;5135741;27;20192;-76
2021/03/13 01:48:00;;;;;;;2.75;0.93;;;8.40;32.60;;;;;;5136476;27;20217;-76
2021/03/13 01:50:27;;;;;;;1.52;0.60;;;8.30;32.50;;;;;;5135892;27;20195;-76
2021/03/13 01:52:54;;;;;;;5.47;0.70;;;8.30;32.60;;;;;;5135966;27;20225;-75
2021/03/13 01:55:23;;;;;;;1.90;0.60;;;8.30;32.60;;;;;;5135648;27;20215;-75
2021/03/13 01:57:50;;;;;;;3.35;1.00;;;8.30;32.70;;;;;;5115112;28;20536;-75
2021/03/13 02:00:22;;;;;;;1.90;0.70;;;8.30;32.70;;;;;;5131198;27;20642;-75
2021/03/13 02:02:50;;;;;;;1.60;0.60;;;8.30;32.80;;;;;;5135701;27;20184;-75
2021/03/13 02:05:19;;;;;;;2.00;0.80;;;8.30;32.90;;;;;;5135020;27;20202;-75
2021/03/13 02:07:57;;;;;;;2.97;0.80;;;8.40;32.90;;;;;;5135752;27;20555;-75
2021/03/13 02:10:43;;;;;;;1.38;0.60;;;8.40;32.80;;;;;;5130952;27;20601;-76
2021/03/13 02:13:17;;;;;;;2.17;0.70;;;8.40;33.10;;;;;;5135078;27;20218;-75
2021/03/13 02:16:06;;;;;;;2.53;0.80;;;8.40;33.00;;;;;;5135663;27;20241;-76
2021/03/13 02:18:41;;;;;;;1.70;0.70;;;8.50;33.40;;;;;;5134967;27;20604;-75
2021/03/13 02:21:19;;;;;;;1.60;0.70;;;8.50;33.80;;;;;;5135209;27;20278;-76
2021/03/13 02:24:10;;;;;;;3.25;0.80;;;8.50;34.50;;;;;;5135070;27;20253;-76
2021/03/13 02:27:04;;;;;;;2.22;0.93;;;8.50;34.40;;;;;;5135335;27;20192;-77
2021/03/13 02:29:39;;;;;;;2.35;1.00;;;8.50;35.40;;;;;;5135137;27;20238;-77
2021/03/13 02:32:13;;;;;;;2.20;0.80;;;8.50;35.10;;;;;;5134957;27;20190;-76
2021/03/13 02:34:44;;;;;;;2.03;0.63;;;8.40;35.40;;;;;;5135460;27;20191;-76
2021/03/13 02:37:16;;;;;;;2.30;0.65;;;8.40;35.60;;;;;;5134998;27;20215;-75
2021/03/13 02:39:48;;;;;;;2.30;0.80;;;8.40;36.00;;;;;;5135125;27;20713;-77
2021/03/13 02:42:14;;;;;;;1.63;0.80;;;8.40;36.30;;;;;;5134834;27;20210;-76
2021/03/13 02:44:45;;;;;;;2.30;0.80;;;8.30;36.90;;;;;;5135129;27;20195;-76
2021/03/13 02:47:13;;;;;;;2.75;0.73;;;8.20;37.00;;;;;;5134787;27;20289;-76
2021/03/13 02:49:45;;;;;;;6.82;1.25;;;8.30;37.10;;;;;;5135228;27;20207;-75
2021/03/13 02:52:13;;;;;;;2.40;0.80;;;8.30;37.00;;;;;;5134324;27;20587;-75
2021/03/13 02:54:47;;;;;;;2.75;1.15;;;8.20;37.20;;;;;;5134681;27;20222;-76
2021/03/13 02:57:15;;;;;;;1.40;0.60;;;8.20;37.30;;;;;;5134457;27;20198;-75
2021/03/13 02:59:46;;;;;;;1.58;0.70;;;8.20;37.90;;;;;;5134669;27;20192;-76
2021/03/13 03:02:14;;;;;;;2.60;0.70;;;8.10;37.50;;;;;;5134345;27;20187;-75
2021/03/13 03:04:42;;;;;;;2.00;0.75;;;8.10;37.80;;;;;;5134601;27;20593;-75
2021/03/13 03:07:11;;;;;;;1.88;0.60;;;8.00;37.80;;;;;;5134158;27;20262;-75
2021/03/13 03:09:39;;;;;;;1.75;0.70;;;8.00;37.80;;;;;;5134468;27;20236;-76
2021/03/13 03:12:08;;;;;;;2.70;0.80;;;8.00;38.00;;;;;;5133540;27;20214;-76
2021/03/13 03:14:38;;;;;;;3.13;1.05;;;8.00;37.80;;;;;;5134218;27;20191;-75
2021/03/13 03:17:08;;;;;;;2.50;0.77;;;8.00;37.90;;;;;;5133982;27;20198;-75
2021/03/13 03:19:35;;;;;;;2.20;0.88;;;7.90;38.10;;;;;;5134340;27;20565;-75
2021/03/13 03:22:02;;;;;;;2.65;0.90;;;7.80;38.30;;;;;;5133738;27;20188;-75
2021/03/13 03:24:31;;;;;;;4.75;1.00;;;7.80;38.20;;;;;;5134022;27;20200;-75
2021/03/13 03:27:00;;;;;;;2.85;0.80;;;7.80;38.30;;;;;;5133845;27;20602;-76
2021/03/13 03:29:27;;;;;;;2.63;0.70;;;7.80;38.30;;;;;;5133917;27;20288;-75
2021/03/13 03:31:54;;;;;;;2.95;1.20;;;7.80;38.40;;;;;;5132649;27;20198;-75
2021/03/13 03:34:22;;;;;;;1.90;0.90;;;7.70;38.50;;;;;;5133787;27;20264;-75
2021/03/13 03:36:50;;;;;;;2.22;0.75;;;7.70;38.50;;;;;;5133720;27;20202;-75
2021/03/13 03:39:18;;;;;;;2.65;0.80;;;7.70;38.80;;;;;;5133523;27;20191;-75
2021/03/13 03:41:47;;;;;;;2.10;0.95;;;7.70;38.80;;;;;;5133977;27;20206;-75
2021/03/13 03:44:19;;;;;;;2.25;0.80;;;7.70;39.10;;;;;;5133482;27;20188;-77
2021/03/13 03:46:52;;;;;;;2.45;0.90;;;7.80;38.90;;;;;;5134078;27;20195;-76
2021/03/13 03:49:22;;;;;;;1.77;0.88;;;7.80;39.60;;;;;;5133309;27;20184;-76
2021/03/13 03:51:50;;;;;;;1.50;0.60;;;7.70;39.20;;;;;;5134011;27;20233;-78
2021/03/13 03:54:20;;;;;;;2.50;0.88;;;7.80;39.10;;;;;;5133211;27;20857;-75
2021/03/13 03:56:50;;;;;;;1.70;0.70;;;7.80;39.20;;;;;;5133665;27;20192;-75
2021/03/13 03:59:19;;;;;;;2.25;0.80;;;7.80;39.70;;;;;;5133449;27;20264;-75
2021/03/13 04:01:50;;;;;;;3.08;1.02;;;7.80;40.00;;;;;;5133762;27;21302;-75
2021/03/13 04:04:19;;;;;;;2.60;0.88;;;7.80;40.40;;;;;;5133514;27;20216;-75
2021/03/13 04:06:48;;;;;;;1.50;0.70;;;7.80;40.20;;;;;;5133290;27;20184;-75
2021/03/13 04:09:28;;;;;;;2.70;0.90;;;7.90;39.80;;;;;;5133533;27;20191;-75
2021/03/13 04:11:57;;;;;;;2.30;0.90;;;7.80;39.20;;;;;;5132954;27;20187;-75
2021/03/13 04:14:28;;;;;;;2.47;0.90;;;7.80;39.70;;;;;;5133471;27;20302;-75
2021/03/13 04:16:55;;;;;;;1.60;0.70;;;7.70;39.60;;;;;;5133363;27;20184;-75
2021/03/13 04:19:24;;;;;;;1.90;0.80;;;7.60;39.60;;;;;;5133356;27;20219;-75
2021/03/13 04:21:52;;;;;;;3.35;0.70;;;7.50;39.70;;;;;;5132969;27;20183;-75
2021/03/13 04:24:21;;;;;;;2.00;0.70;;;7.50;39.40;;;;;;5133310;27;20232;-75
2021/03/13 04:26:49;;;;;;;1.60;0.70;;;7.50;39.70;;;;;;5132810;27;20217;-76
2021/03/13 04:29:16;;;;;;;6.15;1.20;;;7.50;40.00;;;;;;5133113;27;20203;-76
2021/03/13 04:31:43;;;;;;;2.60;1.00;;;7.40;40.00;;;;;;5132910;27;20549;-76
2021/03/13 04:34:11;;;;;;;3.47;1.90;;;7.40;40.10;;;;;;5112747;28;20281;-75
2021/03/13 04:36:39;;;;;;;6.32;1.92;;;7.50;40.20;;;;;;5112244;28;20220;-76
2021/03/13 04:39:08;;;;;;;2.63;1.10;;;7.50;40.20;;;;;;5132071;28;20195;-76
2021/03/13 04:41:37;;;;;;;2.53;0.90;;;7.60;40.00;;;;;;5133083;28;20223;-75
2021/03/13 04:44:05;;;;;;;2.10;0.70;;;7.50;39.70;;;;;;5132234;27;20188;-75
2021/03/13 04:46:34;;;;;;;2.47;0.90;;;7.50;39.60;;;;;;5132669;27;20279;-76
2021/03/13 04:49:04;;;;;;;2.40;1.00;;;7.50;39.70;;;;;;5133270;28;20192;-75
2021/03/13 04:51:31;;;;;;;2.10;1.00;;;7.50;39.90;;;;;;5132574;28;20184;-76
2021/03/13 04:53:58;;;;;;;1.95;0.70;;;7.40;39.90;;;;;;5132578;27;20556;-75
2021/03/13 04:56:26;;;;;;;2.95;0.90;;;7.40;40.20;;;;;;5132994;28;20214;-76
2021/03/13 04:58:52;;;;;;;1.83;0.73;;;7.30;40.30;;;;;;5132569;28;20180;-75
2021/03/13 05:01:19;;;;;;;2.22;1.00;;;7.30;40.00;;;;;;5133122;27;20244;-75
2021/03/13 05:03:46;;;;;;;7.60;1.65;;;7.20;40.40;;;;;;5132654;28;20184;-75
2021/03/13 05:06:15;;;;;;;6.60;3.10;;;7.20;40.50;;;;;;5133077;28;20192;-75
2021/03/13 05:08:42;;;;;;;7.63;3.40;;;7.10;40.80;;;;;;5132628;28;20618;-75
2021/03/13 05:11:11;;;;;;;7.97;3.72;;;7.00;40.80;;;;;;5132922;27;20183;-76
2021/03/13 05:13:39;;;;;;;5.13;2.38;;;7.00;40.80;;;;;;5132239;28;20218;-75
2021/03/13 05:16:06;;;;;;;2.78;1.33;;;7.00;40.80;;;;;;5132731;28;20209;-76
2021/03/13 05:18:33;;;;;;;2.63;0.98;;;7.10;40.60;;;;;;5132954;27;20183;-77
2021/03/13 05:21:01;;;;;;;2.45;1.02;;;7.00;40.10;;;;;;5133146;28;20195;-76
2021/03/13 05:23:27;;;;;;;2.75;0.90;;;7.00;40.10;;;;;;5132525;28;20264;-76
2021/03/13 05:25:55;;;;;;;1.67;0.65;;;7.00;40.00;;;;;;5132970;28;20199;-77
2021/03/13 05:28:21;;;;;;;1.95;0.70;;;7.00;39.90;;;;;;5132897;27;20199;-76
2021/03/13 05:30:50;;;;;;;3.00;1.00;;;7.00;40.00;;;;;;5132960;28;20224;-76
2021/03/13 05:33:19;;;;;;;2.03;0.90;;;7.10;39.70;;;;;;5132260;28;20216;-76
2021/03/13 05:35:46;;;;;;;2.88;1.00;;;7.10;39.60;;;;;;5132952;27;20210;-76
2021/03/13 05:38:18;;;;;;;5.63;1.70;;;7.10;39.50;;;;;;5132510;28;20196;-76
2021/03/13 05:40:44;;;;;;;2.65;0.85;;;7.10;39.60;;;;;;5132830;28;20195;-77
2021/03/13 05:43:16;;;;;;;2.63;1.10;;;7.20;39.60;;;;;;5132122;27;20188;-76
2021/03/13 05:45:53;;;;;;;2.50;1.13;;;7.20;39.40;;;;;;5132664;27;20223;-75
2021/03/13 05:48:24;;;;;;;5.55;1.55;;;7.20;39.30;;;;;;5132488;28;20183;-75
2021/03/13 05:50:52;;;;;;;4.22;1.85;;;7.30;39.10;;;;;;5132487;28;20591;-75
2021/03/13 05:53:19;;;;;;;3.60;1.30;;;7.40;39.10;;;;;;5132702;27;20223;-76
2021/03/13 05:55:48;;;;;;;2.03;0.90;;;7.40;38.70;;;;;;5134922;27;20206;-75
2021/03/13 05:58:16;;;;;;;7.65;1.85;;;7.30;38.60;;;;;;5136341;27;20552;-75
2021/03/13 06:00:43;;;;;;;2.55;1.35;;;7.40;39.20;;;;;;5135989;27;20202;-75
2021/03/13 06:03:11;;;;;;;1.75;0.85;;;7.30;39.50;;;;;;5136144;27;20188;-75
2021/03/13 06:05:39;;;;;;;2.38;0.95;;;7.20;39.80;;;;;;5135891;27;20184;-76
2021/03/13 06:08:07;;;;;;;5.13;1.13;;;7.20;40.00;;;;;;5135803;27;20642;-76
2021/03/13 06:10:34;;;;;;;2.55;1.00;;;7.10;40.50;;;;;;5135091;27;20184;-74
2021/03/13 06:13:01;;;;;;;1.88;0.93;;;7.10;40.80;;;;;;5135910;27;20219;-76
2021/03/13 06:15:30;;;;;;;1.50;0.70;;;7.00;41.60;;;;;;5135573;27;20180;-75
2021/03/13 06:17:57;;;;;;;2.42;1.00;;;6.90;41.70;;;;;;5135756;27;20199;-75
2021/03/13 06:20:34;;;;;;;3.20;1.88;;;7.00;41.90;;;;;;5135626;27;20545;-75
2021/03/13 06:23:03;;;;;;;2.05;0.80;;;7.00;42.00;;;;;;5136171;27;20266;-74
2021/03/13 06:25:31;;;;;;;2.92;1.67;;;7.00;41.90;;;;;;5134766;27;20199;-77
2021/03/13 06:28:06;;;;;;;25.08;10.93;;;7.00;41.80;;;;;;5135590;27;20333;-76
2021/03/13 06:30:34;;;;;;;22.75;9.50;;;7.00;41.80;;;;;;5135425;27;20216;-76
2021/03/13 06:33:01;;;;;;;7.72;3.80;;;6.90;41.40;;;;;;5135783;27;20220;-78
2021/03/13 06:35:30;;;;;;;20.20;9.38;;;6.80;41.60;;;;;;5135301;27;20199;-77
2021/03/13 06:37:58;;;;;;;9.95;3.20;;;6.90;41.80;;;;;;5135159;27;20197;-76
2021/03/13 06:40:36;;;;;;;7.57;3.30;;;7.00;41.20;;;;;;5118426;27;20898;-77
2021/03/13 06:43:20;;;;;;;5.32;2.55;;;7.00;41.20;;;;;;5104967;27;20207;-76
2021/03/13 06:46:00;;;;;;;4.00;2.85;;;7.20;41.60;;;;;;5111556;27;20671;-76
2021/03/13 06:48:31;;;;;;;7.25;3.17;;;7.30;41.90;;;;;;5101610;27;20207;-76
2021/03/13 06:51:27;;;;;;;5.70;2.25;;;7.30;41.30;;;;;;5109631;27;20203;-76
2021/03/13 06:54:09;;;;;;;18.00;9.43;;;7.30;41.30;;;;;;5112720;27;20239;-76
2021/03/13 06:56:38;;;;;;;16.98;8.05;;;7.40;41.30;;;;;;5111827;27;20203;-77
2021/03/13 06:59:25;;;;;;;19.15;8.45;;;7.50;41.10;;;;;;5106738;27;20284;-77
2021/03/13 07:02:00;;;;;;;9.07;3.28;;;7.70;40.50;;;;;;5108553;27;20737;-76
2021/03/13 07:04:37;;;;;;;2.75;1.35;;;7.80;40.90;;;;;;5095197;27;21192;-76
2021/03/13 07:07:05;;;;;;;2.80;1.20;;;8.00;40.10;;;;;;5106631;27;20204;-76
2021/03/13 07:09:51;;;;;;;3.88;1.90;;;8.30;40.00;;;;;;5102910;27;21687;-75
2021/03/13 07:12:29;;;;;;;5.93;1.98;;;8.40;39.60;;;;;;5099852;27;20660;-75
2021/03/13 07:14:57;;;;;;;2.45;1.40;;;8.50;39.70;;;;;;5104111;27;20192;-76
2021/03/13 07:17:26;;;;;;;4.20;2.00;;;8.70;39.90;;;;;;5096756;27;21523;-76
2021/03/13 07:19:52;;;;;;;3.17;1.90;;;8.90;39.70;;;;;;5108635;27;20292;-77
2021/03/13 07:22:19;;;;;;;3.90;2.25;;;9.10;39.50;;;;;;5096028;27;20204;-76
2021/03/13 07:24:54;;;;;;;5.45;2.50;;;9.30;38.60;;;;;;5106300;27;20225;-77
2021/03/13 07:27:22;;;;;;;5.75;2.05;;;9.50;37.90;;;;;;5099300;27;20204;-76
2021/03/13 07:29:50;;;;;;;3.00;2.10;;;9.80;37.90;;;;;;5103644;27;20216;-76
2021/03/13 07:32:21;;;;;;;5.35;2.30;;;9.90;37.20;;;;;;5092155;27;20207;-76
2021/03/13 07:34:49;;;;;;;5.40;2.38;;;10.00;36.60;;;;;;5112955;27;20212;-77
2021/03/13 07:37:18;;;;;;;4.07;1.50;;;10.10;37.30;;;;;;5100446;27;20296;-76
2021/03/13 07:39:48;;;;;;;3.05;1.20;;;10.30;37.90;;;;;;5103291;27;20204;-76
2021/03/13 07:42:17;;;;;;;2.05;1.30;;;11.00;37.30;;;;;;5095878;27;20191;-76
2021/03/13 07:44:46;;;;;;;3.65;1.30;;;11.50;35.20;;;;;;5110090;27;20201;-76
2021/03/13 07:47:14;;;;;;;2.95;1.30;;;11.50;33.90;;;;;;5101607;27;20245;-77
2021/03/13 07:49:41;;;;;;;6.13;1.90;;;11.40;34.00;;;;;;5112546;27;20199;-76
2021/03/13 07:52:11;;;;;;;2.97;1.35;;;11.30;34.20;;;;;;5102372;27;20203;-77
2021/03/13 07:54:41;;;;;;;4.38;2.60;;;11.30;34.70;;;;;;5106960;27;20677;-76
2021/03/13 07:57:10;;;;;;;2.70;1.48;;;11.20;33.90;;;;;;5107327;27;20244;-77
2021/03/13 07:59:45;;;;;;;6.30;1.88;;;11.40;34.70;;;;;;5110147;27;20221;-76
2021/03/13 08:02:35;;;;;;;3.47;1.80;;;11.50;34.50;;;;;;5101632;27;20245;-77
2021/03/13 08:05:03;;;;;;;6.53;1.75;;;11.50;35.00;;;;;;5100361;27;20196;-76
2021/03/13 08:07:49;;;;;;;2.80;1.50;;;11.60;34.00;;;;;;5103811;27;20212;-75
2021/03/13 08:10:49;;;;;;;3.35;1.63;;;11.70;34.50;;;;;;5096646;27;20207;-75
2021/03/13 08:13:48;;;;;;;2.28;1.17;;;12.10;34.70;;;;;;5094591;27;20230;-76
2021/03/13 08:16:19;;;;;;;3.45;1.00;;;12.80;34.10;;;;;;5090074;27;20212;-77
2021/03/13 08:18:47;;;;;;;2.10;1.20;;;13.10;31.40;;;;;;5103075;27;20222;-75
2021/03/13 08:21:44;;;;;;;2.05;0.77;;;13.00;29.90;;;;;;5091675;27;20206;-76
2021/03/13 08:24:14;;;;;;;6.38;1.60;;;12.90;30.30;;;;;;5020858;28;20218;-76
2021/03/13 08:27:12;;;;;;;2.05;1.30;;;12.70;30.30;;;;;;5085582;27;20213;-74
2021/03/13 08:29:53;;;;;;;3.53;1.10;;;12.50;31.10;;;;;;5103094;27;20219;-76
2021/03/13 08:33:01;;;;;;;1.92;1.10;;;12.40;30.10;;;;;;5089988;27;20278;-76
2021/03/13 08:35:54;;;;;;;2.20;1.13;;;12.10;30.00;;;;;;5097479;27;20207;-76
2021/03/13 08:38:53;;;;;;;2.38;1.00;;;12.00;31.60;;;;;;5085567;27;20208;-77
2021/03/13 08:41:53;;;;;;;1.73;1.00;;;12.00;31.30;;;;;;5091976;27;20980;-76
2021/03/13 08:44:31;;;;;;;3.65;1.52;;;12.00;32.00;;;;;;5093423;27;20192;-76
2021/03/13 08:46:59;;;;;;;2.20;1.20;;;12.00;32.00;;;;;;5103042;27;20232;-76
2021/03/13 08:49:45;;;;;;;2.05;1.30;;;12.10;31.80;;;;;;5097981;27;20308;-76
2021/03/13 08:52:26;;;;;;;2.22;1.20;;;12.10;31.60;;;;;;5091861;27;20196;-77
2021/03/13 08:54:54;;;;;;;5.05;1.20;;;12.10;31.40;;;;;;5098378;27;20606;-76
2021/03/13 08:57:44;;;;;;;3.55;1.05;;;12.70;33.00;;;;;;5091730;27;20203;-76
2021/03/13 09:00:16;;;;;;;1.88;1.10;;;13.40;31.30;;;;;;5095953;27;20200;-78
2021/03/13 09:02:45;;;;;;;2.20;1.30;;;14.10;30.70;;;;;;5103028;27;20191;-76
2021/03/13 09:05:25;;;;;;;2.10;1.27;;;15.40;31.00;;;;;;5097725;27;20196;-78
2021/03/13 09:07:55;;;;;;;3.13;1.70;;;17.30;29.20;;;;;;5105507;27;20199;-75
2021/03/13 09:10:24;;;;;;;5.47;1.90;;;19.10;26.10;;;;;;5093787;27;20846;-77
2021/03/13 09:12:50;;;;;;;3.13;1.57;;;20.50;24.30;;;;;;5102952;27;20454;-77
2021/03/13 09:15:18;;;;;;;2.90;1.17;;;20.90;23.50;;;;;;5094221;27;20448;-78
2021/03/13 09:17:44;;;;;;;2.30;1.23;;;21.40;22.50;;;;;;5105479;27;20464;-77
2021/03/13 09:20:14;;;;;;;2.63;1.30;;;21.70;21.80;;;;;;5098168;27;20816;-79
2021/03/13 09:22:43;;;;;;;2.70;1.60;;;22.00;21.30;;;;;;5101325;27;20445;-76
2021/03/13 09:25:13;;;;;;;1.77;0.90;;;22.40;21.10;;;;;;5091365;27;20490;-78
2021/03/13 09:27:40;;;;;;;2.53;1.13;;;22.90;21.50;;;;;;5101841;27;20466;-77
2021/03/13 09:30:16;;;;;;;3.70;1.53;;;23.80;21.60;;;;;;5098440;27;20495;-79
2021/03/13 09:32:44;;;;;;;2.97;0.80;;;24.30;20.80;;;;;;5102132;27;20445;-76
2021/03/13 09:35:11;;;;;;;1.93;1.00;;;24.50;19.20;;;;;;5100175;27;20779;-80
2021/03/13 09:37:43;;;;;;;2.00;1.20;;;24.30;18.50;;;;;;5105432;27;20424;-76
2021/03/13 09:40:13;;;;;;;2.20;0.87;;;24.20;19.70;;;;;;5099441;27;20919;-77
2021/03/13 09:42:40;;;;;;;3.27;1.10;;;24.50;19.20;;;;;;5106360;27;20438;-77
2021/03/13 09:45:08;;;;;;;2.83;1.00;;;25.00;19.10;;;;;;5101810;27;20441;-81
2021/03/13 09:47:42;;;;;;;2.33;1.10;;;26.10;17.70;;;;;;5103677;27;23684;-76
2021/03/13 09:50:10;;;;;;;1.90;0.80;;;27.60;17.90;;;;;;5101573;27;20498;-79
2021/03/13 09:52:40;;;;;;;2.00;0.93;;;28.70;15.70;;;;;;5102885;27;20434;-77
2021/03/13 09:55:10;;;;;;;2.10;1.10;;;29.10;15.60;;;;;;5101132;27;20477;-80
2021/03/13 09:57:39;;;;;;;3.40;1.10;;;29.20;14.40;;;;;;5105857;27;20536;-77
2021/03/13 10:00:09;;;;;;;26.63;16.93;;;28.70;14.60;;;;;;5099405;27;20433;-81
2021/03/13 10:02:35;;;;;;;1.90;0.90;;;28.60;15.30;;;;;;5103403;27;20441;-77
2021/03/13 10:05:06;;;;;;;3.20;1.07;;;29.10;14.80;;;;;;5094489;27;20446;-77
2021/03/13 10:07:37;;;;;;;18.23;8.00;;;30.70;14.70;;;;;;5110229;27;22021;-78
2021/03/13 10:10:09;;;;;;;6.50;3.40;;;33.00;14.50;;;;;;5102231;27;21000;-81
2021/03/13 10:12:42;;;;;;;13.60;8.17;;;35.60;13.00;;;;;;5104235;27;20457;-76
2021/03/13 10:15:29;;;;;;;27.97;14.70;;;37.00;10.90;;;;;;5094097;27;20450;-76
2021/03/13 10:18:01;;;;;;;15.37;7.83;;;38.20;10.10;;;;;;5103899;27;20474;-77
2021/03/13 10:20:31;;;;;;;3.93;0.60;;;38.40;8.80;;;;;;5100398;27;23452;-76
2021/03/13 10:23:09;;;;;;;1.60;0.73;;;37.70;7.90;;;;;;5105504;27;20454;-77
2021/03/13 10:25:38;;;;;;;2.67;0.87;;;36.10;7.60;;;;;;5102272;27;20592;-77
2021/03/13 10:28:08;;;;;;;6.20;1.97;;;34.80;8.50;;;;;;5099198;27;20863;-81
2021/03/13 10:30:35;;;;;;;7.03;2.33;;;34.10;9.00;;;;;;5102390;27;21271;-77
2021/03/13 10:33:03;;;;;;;4.20;2.67;;;33.90;9.50;;;;;;5104169;27;20420;-79
2021/03/13 10:35:31;;;;;;;9.00;3.27;;;34.00;9.60;;;;;;5104502;27;21167;-77
2021/03/13 10:38:00;;;;;;;6.50;2.53;;;34.20;10.00;;;;;;5107037;27;20452;-76
2021/03/13 10:40:39;;;;;;;7.77;4.57;;;34.20;9.50;;;;;;5097766;27;20583;-76
2021/03/13 10:43:15;;;;;;;6.43;3.20;;;33.60;9.70;;;;;;5101579;27;20439;-80
2021/03/13 10:45:43;;;;;;;5.50;1.93;;;32.90;10.30;;;;;;5111582;27;20983;-75
2021/03/13 10:48:13;;;;;;;3.30;0.90;;;32.10;10.40;;;;;;5098451;27;20435;-82
2021/03/13 10:50:43;;;;;;;2.07;0.80;;;32.20;10.40;;;;;;5110620;27;20850;-76
2021/03/13 10:53:30;;;;;;;3.00;0.97;;;33.00;11.20;;;;;;5100557;27;20457;-81
2021/03/13 10:56:01;;;;;;;4.13;1.93;;;34.90;11.00;;;;;;5105632;27;20448;-77
2021/03/13 10:58:30;;;;;;;5.23;2.90;;;37.50;10.10;;;;;;5094109;27;21227;-78
2021/03/13 11:00:59;;;;;;;2.90;2.00;;;40.20;9.80;;;;;;5107694;27;20447;-75
2021/03/13 11:03:26;;;;;;;3.37;1.57;;;41.30;7.50;;;;;;5097916;27;20620;-74
2021/03/13 11:05:54;;;;;;;3.07;1.30;;;40.30;6.40;;;;;;5108485;27;20859;-74
2021/03/13 11:08:22;;;;;;;2.43;1.40;;;39.60;7.60;;;;;;5095145;27;20468;-74
2021/03/13 11:10:55;;;;;;;2.10;1.10;;;40.00;7.50;;;;;;5101640;27;20444;-74
2021/03/13 11:13:22;;;;;;;3.13;1.53;;;41.10;7.50;;;;;;5091671;27;20635;-74
2021/03/13 11:15:57;;;;;;;2.07;0.60;;;42.80;7.40;;;;;;5104244;27;20805;-76
2021/03/13 11:18:26;;;;;;;2.83;1.40;;;44.00;5.80;;;;;;5093144;27;20457;-74
2021/03/13 11:20:59;;;;;;;2.00;0.90;;;44.60;6.00;;;;;;5106388;27;20434;-74
2021/03/13 11:23:26;;;;;;;2.60;1.13;;;44.90;5.70;;;;;;5093613;27;21244;-75
2021/03/13 11:25:57;;;;;;;2.43;0.87;;;45.50;5.40;;;;;;5104154;27;20792;-76
2021/03/13 11:28:23;;;;;;;2.20;1.27;;;45.90;5.70;;;;;;5095159;27;20444;-75
2021/03/13 11:30:50;;;;;;;2.07;1.27;;;45.60;5.30;;;;;;5101664;27;20506;-74
2021/03/13 11:33:18;;;;;;;2.30;1.27;;;46.00;5.30;;;;;;5097116;27;20445;-75
2021/03/13 11:35:49;;;;;;;2.93;1.00;;;47.00;5.20;;;;;;5104308;27;20954;-75
2021/03/13 11:38:20;;;;;;;3.07;1.10;;;47.20;4.60;;;;;;5092357;27;20477;-74
2021/03/13 11:40:47;;;;;;;2.13;0.87;;;46.10;4.30;;;;;;5103918;27;20441;-74
2021/03/13 11:43:14;;;;;;;2.50;1.10;;;44.10;4.40;;;;;;5091379;27;20495;-78
2021/03/13 11:45:41;;;;;;;3.30;1.13;;;42.50;5.00;;;;;;5105132;27;20445;-75
2021/03/13 11:48:09;;;;;;;1.90;0.90;;;42.00;6.00;;;;;;5099769;27;20449;-81
2021/03/13 11:50:37;;;;;;;2.20;1.27;;;42.90;5.80;;;;;;5101185;27;20445;-75
2021/03/13 11:53:04;;;;;;;3.90;1.47;;;44.10;5.90;;;;;;5098293;27;20431;-82
2021/03/13 11:55:31;;;;;;;1.90;1.00;;;45.60;5.60;;;;;;5099711;27;20491;-75
2021/03/13 11:57:59;;;;;;;2.13;0.87;;;46.50;4.70;;;;;;5104937;27;20433;-74
2021/03/13 12:00:26;;;;;;;2.00;1.00;;;46.40;4.50;;;;;;5097086;27;20433;-74
2021/03/13 12:02:58;;;;;;;1.90;0.90;;;46.10;4.00;;;;;;5105827;27;20441;-74
2021/03/13 12:05:25;;;;;;;2.17;1.00;;;45.90;4.80;;;;;;5094663;27;20437;-75
2021/03/13 12:07:58;;;;;;;3.13;0.97;;;46.50;5.00;;;;;;5105230;27;21015;-74
2021/03/13 12:10:25;;;;;;;3.10;1.07;;;47.40;4.70;;;;;;5097139;27;20445;-74
2021/03/13 12:12:52;;;;;;;2.10;1.03;;;47.60;4.20;;;;;;5103979;27;20788;-74
2021/03/13 12:15:22;;;;;;;2.90;1.10;;;46.20;3.80;;;;;;5093967;27;20464;-74
2021/03/13 12:17:58;;;;;;;2.20;1.10;;;44.40;4.00;;;;;;5106748;27;20956;-74
2021/03/13 12:20:24;;;;;;;3.00;1.70;;;42.10;4.20;;;;;;5095697;27;20448;-75
2021/03/13 12:23:07;;;;;;;2.30;0.90;;;39.80;5.20;;;;;;5102798;27;20445;-73
2021/03/13 12:25:35;;;;;;;4.90;1.00;;;38.00;6.20;;;;;;5101967;27;20493;-74
2021/03/13 12:28:24;;;;;;;2.17;0.90;;;38.00;7.00;;;;;;5101661;27;20541;-79
2021/03/13 12:31:00;;;;;;;2.67;0.90;;;38.70;7.10;;;;;;5089707;27;20466;-74
2021/03/13 12:33:27;;;;;;;2.77;1.07;;;39.80;6.60;;;;;;5073142;27;21352;-74
2021/03/13 12:35:59;;;;;;;4.10;2.50;;;41.10;7.20;;;;;;5081823;28;20451;-74
2021/03/13 12:38:27;;;;;;;2.30;1.10;;;42.10;6.10;;;;;;5075366;27;20512;-74
2021/03/13 12:41:00;;;;;;;1.90;1.10;;;42.20;6.00;;;;;;5085887;28;20450;-74
2021/03/13 12:43:27;;;;;;;3.20;0.90;;;41.30;5.50;;;;;;5074993;27;21272;-75
2021/03/13 12:45:55;;;;;;;1.60;0.80;;;39.50;5.10;;;;;;5085445;28;20438;-73
2021/03/13 12:48:21;;;;;;;2.57;0.90;;;37.90;5.40;;;;;;5070584;28;20445;-73
2021/03/13 12:50:52;;;;;;;2.43;1.00;;;36.20;6.30;;;;;;5082986;28;20496;-73
2021/03/13 12:53:18;;;;;;;3.50;0.90;;;35.00;7.20;;;;;;5072158;28;21009;-74
2021/03/13 12:55:46;;;;;;;2.67;0.80;;;33.70;7.60;;;;;;5082771;28;20503;-76
2021/03/13 12:58:13;;;;;;;2.67;0.83;;;32.40;8.50;;;;;;5072382;28;20463;-80
2021/03/13 13:00:42;;;;;;;3.33;1.13;;;31.90;9.20;;;;;;5081031;28;20501;-76
2021/03/13 13:03:08;;;;;;;3.10;0.90;;;32.20;10.60;;;;;;5074032;27;20935;-78
2021/03/13 13:05:37;;;;;;;3.43;2.57;;;33.20;9.30;;;;;;5087099;27;20435;-74
2021/03/13 13:08:05;;;;;;;5.50;1.70;;;33.10;9.00;;;;;;5082308;27;20442;-76
2021/03/13 13:10:32;;;;;;;3.57;1.40;;;32.40;8.70;;;;;;5083536;27;20506;-74
2021/03/13 13:13:00;;;;;;;3.50;1.00;;;31.30;9.40;;;;;;5071231;27;21282;-75
2021/03/13 13:15:26;;;;;;;3.73;1.13;;;30.10;9.90;;;;;;5085718;27;20511;-74